Time;durP1;ratioP1;P1;durP2;ratioP2;P2;SDS_P1;SDS_P2;PMS_P1;PMS_P2;Temp;Humidity;BMP_temperature;BMP_pressure;BME280_temperature;BME280_humidity;BME280_pressure;Samples;Min_cycle;Max_cycle;Signal;HPM_P1;HPM_P2
2022/03/21 00:04:12;;;;;;;4.18;3.78;;;;;;;;;;12598816;28;20396;-79
2022/03/21 00:10:14;;;;;;;5.30;4.80;;;;;;;;;;12599269;28;20405;-79
2022/03/21 00:16:16;;;;;;;5.00;4.60;;;;;;;;;;12598788;28;20051;-79
2022/03/21 00:22:20;;;;;;;7.90;4.85;;;;;;;;;;12599325;28;20267;-79
2022/03/21 00:28:22;;;;;;;5.00;4.60;;;;;;;;;;12602281;28;20049;-76
2022/03/21 00:34:24;;;;;;;5.03;4.63;;;;;;;;;;12580957;28;20035;-78
2022/03/21 00:40:25;;;;;;;4.45;4.05;;;;;;;;;;12598900;28;20044;-79
2022/03/21 00:46:28;;;;;;;4.63;4.10;;;;;;;;;;12596198;28;20048;-79
2022/03/21 00:52:30;;;;;;;4.40;3.90;;;;;;;;;;12597082;28;20044;-79
2022/03/21 00:58:32;;;;;;;4.43;4.10;;;;;;;;;;12598556;28;20033;-75
2022/03/21 01:04:33;;;;;;;3.90;3.53;;;;;;;;;;12597266;28;20035;-79
2022/03/21 01:10:35;;;;;;;4.60;4.07;;;;;;;;;;12609347;28;20049;-79
2022/03/21 01:16:37;;;;;;;3.47;3.17;;;;;;;;;;12579239;28;20488;-79
2022/03/21 01:22:39;;;;;;;4.35;3.97;;;;;;;;;;12595857;28;20028;-80
2022/03/21 01:28:40;;;;;;;5.00;4.55;;;;;;;;;;12594300;28;20051;-79
2022/03/21 01:34:43;;;;;;;4.90;4.50;;;;;;;;;;12594148;28;20063;-79
2022/03/21 01:40:44;;;;;;;4.68;4.28;;;;;;;;;;12594396;28;20041;-79
2022/03/21 01:46:47;;;;;;;4.75;4.35;;;;;;;;;;12593781;28;20040;-79
2022/03/21 01:52:48;;;;;;;4.60;4.20;;;;;;;;;;12593873;28;20394;-79
2022/03/21 01:58:50;;;;;;;5.38;4.88;;;;;;;;;;12593847;28;20515;-79
2022/03/21 02:04:52;;;;;;;4.95;4.43;;;;;;;;;;12592501;28;20024;-79
2022/03/21 02:10:53;;;;;;;4.45;4.05;;;;;;;;;;12595093;28;20391;-79
2022/03/21 02:16:55;;;;;;;4.60;4.20;;;;;;;;;;12607606;28;20409;-79
2022/03/21 02:23:16;;;;;;;3.50;3.20;;;;;;;;;;12594807;28;20032;-79
2022/03/21 02:29:19;;;;;;;4.18;3.88;;;;;;;;;;12592890;28;20040;-80
2022/03/21 02:35:21;;;;;;;5.07;4.67;;;;;;;;;;12604092;28;20123;-79
2022/03/21 02:41:23;;;;;;;5.03;4.50;;;;;;;;;;12595784;28;20043;-79
2022/03/21 02:47:25;;;;;;;4.82;4.43;;;;;;;;;;12575898;28;20119;-79
2022/03/21 02:53:28;;;;;;;4.38;3.97;;;;;;;;;;12597394;28;20039;-79
2022/03/21 02:59:30;;;;;;;4.43;4.03;;;;;;;;;;12603562;28;20370;-79
2022/03/21 03:05:31;;;;;;;4.65;4.25;;;;;;;;;;12603557;28;20044;-79
2022/03/21 03:11:36;;;;;;;5.70;5.20;;;;;;;;;;12601629;28;20412;-79
2022/03/21 03:17:38;;;;;;;4.90;4.50;;;;;;;;;;12599608;28;20028;-79
2022/03/21 03:23:41;;;;;;;5.72;5.07;;;;;;;;;;12598499;28;20036;-79
2022/03/21 03:29:42;;;;;;;4.93;4.53;;;;;;;;;;12596307;28;20037;-79
2022/03/21 03:35:44;;;;;;;4.70;4.30;;;;;;;;;;12596063;28;20036;-79
2022/03/21 03:41:46;;;;;;;5.65;5.10;;;;;;;;;;12596965;28;20059;-79
2022/03/21 03:47:47;;;;;;;6.20;5.60;;;;;;;;;;12596118;28;20044;-79
2022/03/21 03:53:49;;;;;;;6.47;5.90;;;;;;;;;;12598384;28;20059;-79
2022/03/21 03:59:51;;;;;;;5.80;5.20;;;;;;;;;;12603923;28;20044;-78
2022/03/21 04:05:52;;;;;;;6.07;5.57;;;;;;;;;;12595328;28;20033;-76
2022/03/21 04:11:54;;;;;;;5.75;5.20;;;;;;;;;;12577677;28;20513;-77
2022/03/21 04:18:14;;;;;;;6.43;5.85;;;;;;;;;;12594559;28;20040;-77
2022/03/21 04:24:15;;;;;;;6.30;5.70;;;;;;;;;;12594793;28;20377;-77
2022/03/21 04:30:17;;;;;;;6.95;6.32;;;;;;;;;;12594265;28;20037;-77
2022/03/21 04:36:40;;;;;;;6.88;6.28;;;;;;;;;;12593664;28;20032;-80
2022/03/21 04:42:41;;;;;;;5.82;5.32;;;;;;;;;;12593912;28;20393;-80
2022/03/21 04:48:43;;;;;;;5.93;5.45;;;;;;;;;;12594028;28;20051;-80
2022/03/21 04:54:44;;;;;;;6.18;5.47;;;;;;;;;;12592920;28;20039;-80
2022/03/21 05:00:46;;;;;;;6.10;5.55;;;;;;;;;;12594193;28;20040;-80
2022/03/21 05:06:59;;;;;;;5.70;5.20;;;;;;;;;;12592083;28;20050;-80
2022/03/21 05:13:01;;;;;;;7.13;6.43;;;;;;;;;;12593910;28;20057;-80
2022/03/21 05:19:03;;;;;;;9.80;8.95;;;;;;;;;;12593782;28;20050;-80
2022/03/21 05:31:25;;;;;;;7.72;6.60;;;;;;;;;;12592793;28;20047;-80
2022/03/21 05:37:27;;;;;;;6.43;5.93;;;;;;;;;;12591731;28;20051;-80
2022/03/21 05:43:29;;;;;;;6.82;6.28;;;;;;;;;;12600849;28;20040;-79
2022/03/21 05:49:30;;;;;;;8.50;6.88;;;;;;;;;;12591034;28;20481;-80
2022/03/21 05:55:32;;;;;;;8.93;8.15;;;;;;;;;;12591400;28;20028;-80
2022/03/21 06:01:34;;;;;;;9.60;8.68;;;;;;;;;;12591226;28;20028;-80
2022/03/21 06:07:35;;;;;;;11.45;10.40;;;;;;;;;;12590121;28;20036;-77
2022/03/21 06:13:39;;;;;;;9.15;8.25;;;;;;;;;;12592293;28;20057;-77
2022/03/21 06:19:41;;;;;;;9.23;8.43;;;;;;;;;;12594157;28;20143;-76
2022/03/21 06:25:43;;;;;;;9.40;8.52;;;;;;;;;;12593226;28;20397;-77
2022/03/21 06:31:44;;;;;;;8.73;7.93;;;;;;;;;;12593532;28;20029;-80
2022/03/21 06:37:46;;;;;;;9.45;8.60;;;;;;;;;;12567325;28;20040;-77
2022/03/21 06:43:48;;;;;;;8.93;8.10;;;;;;;;;;12549278;28;20040;-76
2022/03/21 06:49:50;;;;;;;7.85;7.15;;;;;;;;;;12558789;28;20037;-79
2022/03/21 06:55:52;;;;;;;7.63;6.93;;;;;;;;;;12575471;28;20032;-78
2022/03/21 07:01:53;;;;;;;8.35;7.55;;;;;;;;;;12544220;28;20092;-78
2022/03/21 07:07:55;;;;;;;8.65;7.82;;;;;;;;;;12579686;28;20040;-78
2022/03/21 07:13:57;;;;;;;11.07;9.57;;;;;;;;;;12568282;28;20060;-80
2022/03/21 07:19:58;;;;;;;11.52;10.05;;;;;;;;;;12562617;28;20032;-80
2022/03/21 07:26:02;;;;;;;10.65;9.55;;;;;;;;;;12578142;28;20399;-79
2022/03/21 07:32:04;;;;;;;8.90;8.00;;;;;;;;;;12562416;28;20033;-80
2022/03/21 07:38:07;;;;;;;9.65;8.57;;;;;;;;;;12568928;28;20040;-79
2022/03/21 07:44:08;;;;;;;;;;;;;;;;;;12568788;28;20037;-81
2022/03/21 07:50:10;;;;;;;9.48;8.55;;;;;;;;;;12570831;28;19920;-79
2022/03/21 07:56:12;;;;;;;10.67;8.43;;;;;;;;;;12559206;28;20029;-79
2022/03/21 08:02:14;;;;;;;10.43;9.32;;;;;;;;;;12560919;28;20055;-80
2022/03/21 08:08:16;;;;;;;10.00;9.10;;;;;;;;;;12557779;28;20513;-80
2022/03/21 08:14:17;;;;;;;10.07;9.10;;;;;;;;;;12548763;28;20064;-79
2022/03/21 08:20:20;;;;;;;9.70;8.80;;;;;;;;;;12565412;28;20035;-79
2022/03/21 08:26:23;;;;;;;9.48;8.57;;;;;;;;;;12551883;28;20048;-80
2022/03/21 08:32:24;;;;;;;8.82;8.02;;;;;;;;;;12566499;28;20021;-80
2022/03/21 08:38:26;;;;;;;7.63;6.93;;;;;;;;;;12565662;28;20040;-79
2022/03/21 08:44:28;;;;;;;8.65;7.80;;;;;;;;;;12567786;28;20033;-79
2022/03/21 08:50:30;;;;;;;8.75;7.95;;;;;;;;;;12557837;28;20509;-79
2022/03/21 08:56:32;;;;;;;10.57;8.63;;;;;;;;;;12562364;28;20040;-80
2022/03/21 09:02:34;;;;;;;9.20;8.30;;;;;;;;;;12573307;28;20035;-79
2022/03/21 09:08:37;;;;;;;11.48;8.45;;;;;;;;;;12560157;28;20033;-79
2022/03/21 09:14:39;;;;;;;10.63;8.23;;;;;;;;;;12564639;28;20064;-79
2022/03/21 09:20:40;;;;;;;8.15;7.20;;;;;;;;;;12553315;28;20413;-79
2022/03/21 09:26:42;;;;;;;9.23;8.32;;;;;;;;;;12587750;28;20045;-83
2022/03/21 09:32:44;;;;;;;8.38;7.60;;;;;;;;;;12560024;28;20020;-78
2022/03/21 09:38:46;;;;;;;7.40;6.70;;;;;;;;;;12556727;28;20033;-82
2022/03/21 09:44:53;;;;;;;10.57;7.75;;;;;;;;;;12553554;28;20493;-80
2022/03/21 09:50:56;;;;;;;10.00;8.43;;;;;;;;;;12558308;28;20044;-80
2022/03/21 09:57:01;;;;;;;9.52;7.80;;;;;;;;;;12554859;28;20037;-80
2022/03/21 10:03:04;;;;;;;8.30;7.15;;;;;;;;;;12568535;28;20032;-79
2022/03/21 10:09:06;;;;;;;7.32;6.57;;;;;;;;;;12565418;28;20047;-80
2022/03/21 10:15:08;;;;;;;7.18;6.47;;;;;;;;;;12549501;28;20541;-80
2022/03/21 10:21:11;;;;;;;8.50;7.37;;;;;;;;;;12550609;28;20029;-79
2022/03/21 10:27:12;;;;;;;;;;;;;;;;;;12547889;28;20044;-78
2022/03/21 10:33:23;;;;;;;6.43;5.75;;;;;;;;;;12560806;28;19920;-79
2022/03/21 10:39:25;;;;;;;6.65;5.93;;;;;;;;;;12555920;28;20175;-78
2022/03/21 10:45:47;;;;;;;5.60;5.03;;;;;;;;;;12559169;28;20043;-78
2022/03/21 10:51:56;;;;;;;5.37;4.50;;;;;;;;;;12555861;28;20044;-80
2022/03/21 10:57:58;;;;;;;4.28;3.97;;;;;;;;;;12556498;28;20025;-78
2022/03/21 11:04:01;;;;;;;5.47;4.97;;;;;;;;;;12538085;28;20041;-78
2022/03/21 11:10:03;;;;;;;6.38;5.75;;;;;;;;;;12569496;28;20052;-77
2022/03/21 11:16:05;;;;;;;8.45;6.03;;;;;;;;;;12560372;28;20052;-78
2022/03/21 11:22:07;;;;;;;6.38;4.75;;;;;;;;;;12572205;28;20047;-78
2022/03/21 11:28:21;;;;;;;5.17;4.57;;;;;;;;;;12553762;28;20048;-79
2022/03/21 11:34:28;;;;;;;4.88;4.05;;;;;;;;;;12562634;28;20047;-77
2022/03/21 11:40:36;;;;;;;4.20;3.70;;;;;;;;;;12563405;28;20358;-76
2022/03/21 11:46:38;;;;;;;4.93;3.65;;;;;;;;;;12572649;28;20033;-79
2022/03/21 11:52:58;;;;;;;5.07;4.60;;;;;;;;;;12564833;28;20036;-78
2022/03/21 11:59:00;;;;;;;4.65;3.88;;;;;;;;;;12562539;28;20294;-79
2022/03/21 12:05:06;;;;;;;3.73;3.43;;;;;;;;;;12559583;28;20029;-77
2022/03/21 12:11:07;;;;;;;4.82;4.43;;;;;;;;;;12555286;28;20052;-80
2022/03/21 12:17:12;;;;;;;4.43;3.45;;;;;;;;;;12539840;28;20033;-78
2022/03/21 12:23:15;;;;;;;4.28;3.72;;;;;;;;;;12563499;28;20025;-76
2022/03/21 12:29:32;;;;;;;3.47;3.17;;;;;;;;;;12563086;28;20041;-76
2022/03/21 12:35:45;;;;;;;3.38;3.17;;;;;;;;;;12546198;28;20397;-77
2022/03/21 12:41:47;;;;;;;5.32;4.93;;;;;;;;;;12542762;28;20495;-77
2022/03/21 12:47:49;;;;;;;5.93;4.90;;;;;;;;;;12546676;28;20241;-78
2022/03/21 12:53:51;;;;;;;4.00;3.60;;;;;;;;;;12529946;28;20032;-79
2022/03/21 12:59:52;;;;;;;4.32;3.78;;;;;;;;;;12545238;28;20037;-79
2022/03/21 13:12:19;;;;;;;3.40;3.10;;;;;;;;;;12547317;28;20056;-79
2022/03/21 13:18:21;;;;;;;5.15;4.65;;;;;;;;;;12545792;28;20400;-79
2022/03/21 13:24:43;;;;;;;3.45;3.15;;;;;;;;;;12554851;28;20036;-79
2022/03/21 13:30:58;;;;;;;2.75;2.55;;;;;;;;;;12554305;28;20045;-77
2022/03/21 13:37:00;;;;;;;4.18;3.85;;;;;;;;;;12544787;28;20043;-77
2022/03/21 13:43:21;;;;;;;4.13;3.73;;;;;;;;;;12546369;28;20424;-77
2022/03/21 13:49:40;;;;;;;4.03;3.63;;;;;;;;;;12546982;28;20513;-79
2022/03/21 13:55:42;;;;;;;5.35;4.30;;;;;;;;;;12545298;28;20033;-76
2022/03/21 14:01:46;;;;;;;3.97;3.57;;;;;;;;;;12545462;28;20029;-78
2022/03/21 14:07:49;;;;;;;4.50;4.10;;;;;;;;;;12543224;28;20056;-79
2022/03/21 14:13:53;;;;;;;4.45;4.05;;;;;;;;;;12545513;28;20182;-80
2022/03/21 14:19:55;;;;;;;4.18;3.78;;;;;;;;;;12530241;28;20029;-76
2022/03/21 14:32:18;;;;;;;4.43;3.80;;;;;;;;;;12549987;28;20045;-77
2022/03/21 14:38:21;;;;;;;3.83;3.07;;;;;;;;;;12539868;28;20398;-80
2022/03/21 14:44:23;;;;;;;2.83;2.55;;;;;;;;;;12553940;28;20049;-79
2022/03/21 14:50:25;;;;;;;3.65;3.33;;;;;;;;;;12547706;28;20041;-79
2022/03/21 14:56:28;;;;;;;3.63;3.33;;;;;;;;;;12551721;28;20048;-78
2022/03/21 15:02:30;;;;;;;4.30;3.92;;;;;;;;;;12551924;28;20237;-78
2022/03/21 15:08:32;;;;;;;4.43;3.20;;;;;;;;;;12550154;28;20037;-79
2022/03/21 15:14:33;;;;;;;2.97;2.60;;;;;;;;;;12551324;28;20057;-79
2022/03/21 15:20:35;;;;;;;3.08;2.33;;;;;;;;;;12550146;28;20029;-79
2022/03/21 15:26:38;;;;;;;3.07;2.70;;;;;;;;;;12549831;28;20492;-79
2022/03/21 15:32:40;;;;;;;3.20;2.70;;;;;;;;;;12556652;28;20033;-77
2022/03/21 15:45:02;;;;;;;4.28;3.88;;;;;;;;;;12550571;28;20291;-78
2022/03/21 15:51:04;;;;;;;4.80;4.27;;;;;;;;;;12548975;28;20044;-78
2022/03/21 15:57:06;;;;;;;4.43;4.03;;;;;;;;;;12550058;28;20025;-77
2022/03/21 16:03:08;;;;;;;3.60;3.30;;;;;;;;;;12548980;28;20036;-77
2022/03/21 16:09:10;;;;;;;4.10;3.70;;;;;;;;;;12546240;28;20037;-76
2022/03/21 16:15:13;;;;;;;2.75;2.47;;;;;;;;;;12547632;28;20053;-76
2022/03/21 16:21:15;;;;;;;5.10;3.35;;;;;;;;;;12528742;28;20036;-76
2022/03/21 16:27:17;;;;;;;3.78;3.47;;;;;;;;;;12546248;28;20041;-76
2022/03/21 16:33:18;;;;;;;3.67;3.38;;;;;;;;;;12546275;28;20044;-80
2022/03/21 16:39:20;;;;;;;4.07;3.60;;;;;;;;;;12546872;28;20404;-76
2022/03/21 16:45:22;;;;;;;7.18;5.22;;;;;;;;;;12545334;28;20037;-78
2022/03/21 16:51:24;;;;;;;4.28;3.90;;;;;;;;;;12551085;28;20405;-76
2022/03/21 16:57:27;;;;;;;3.42;3.13;;;;;;;;;;12546920;28;20037;-77
2022/03/21 17:03:28;;;;;;;2.97;2.67;;;;;;;;;;12547040;28;20037;-77
2022/03/21 17:09:30;;;;;;;3.10;2.78;;;;;;;;;;12545635;28;20401;-78
2022/03/21 17:15:33;;;;;;;3.50;2.80;;;;;;;;;;12558492;28;20061;-76
2022/03/21 17:27:58;;;;;;;3.88;2.58;;;;;;;;;;12544575;28;19916;-78
2022/03/21 17:33:59;;;;;;;4.28;3.08;;;;;;;;;;12544574;28;20029;-78
2022/03/21 17:40:02;;;;;;;2.92;2.55;;;;;;;;;;12544161;28;20037;-78
2022/03/21 17:46:03;;;;;;;4.80;3.40;;;;;;;;;;12544356;28;20485;-78
2022/03/21 17:52:05;;;;;;;3.83;3.20;;;;;;;;;;12547829;28;20045;-76
2022/03/21 17:58:07;;;;;;;4.63;3.53;;;;;;;;;;12546356;28;20029;-78
2022/03/21 18:04:09;;;;;;;3.38;3.08;;;;;;;;;;12525420;28;20029;-77
2022/03/21 18:10:13;;;;;;;3.80;3.45;;;;;;;;;;12548454;28;20508;-77
2022/03/21 18:16:15;;;;;;;3.70;3.35;;;;;;;;;;12543030;28;20045;-79
2022/03/21 18:22:20;;;;;;;4.30;3.65;;;;;;;;;;12542558;28;20385;-79
2022/03/21 18:28:23;;;;;;;5.68;4.45;;;;;;;;;;12546268;28;20394;-79
2022/03/21 18:34:25;;;;;;;7.47;5.78;;;;;;;;;;12549998;28;20040;-78
2022/03/21 18:40:28;;;;;;;5.68;4.82;;;;;;;;;;12544043;28;20474;-79
2022/03/21 18:46:32;;;;;;;7.27;5.07;;;;;;;;;;12542428;28;20037;-79
2022/03/21 18:52:35;;;;;;;5.70;4.35;;;;;;;;;;12539753;28;20037;-79
2022/03/21 18:58:37;;;;;;;6.00;4.70;;;;;;;;;;12523021;28;20496;-79
2022/03/21 19:04:39;;;;;;;8.95;6.88;;;;;;;;;;12539146;28;20290;-79
2022/03/21 19:10:45;;;;;;;10.13;7.73;;;;;;;;;;12522840;28;20048;-79
2022/03/21 19:16:48;;;;;;;9.63;8.25;;;;;;;;;;12539148;28;20493;-79
2022/03/21 19:22:51;;;;;;;9.45;8.57;;;;;;;;;;12522444;28;20508;-78
2022/03/21 19:28:55;;;;;;;9.82;7.35;;;;;;;;;;12521944;28;20045;-81
2022/03/21 19:34:57;;;;;;;8.85;7.72;;;;;;;;;;12543218;28;20359;-81
2022/03/21 19:41:01;;;;;;;11.40;8.50;;;;;;;;;;12531552;28;20041;-82
2022/03/21 19:47:03;;;;;;;8.27;7.47;;;;;;;;;;12547674;28;20413;-85
2022/03/21 19:53:06;;;;;;;9.60;8.57;;;;;;;;;;12549525;28;20044;-84
2022/03/21 19:59:14;;;;;;;10.70;9.43;;;;;;;;;;12555372;28;20043;-81
2022/03/21 20:05:20;;;;;;;10.77;9.68;;;;;;;;;;12548708;28;20037;-83
2022/03/21 20:11:26;;;;;;;9.17;8.10;;;;;;;;;;12547559;28;20056;-82
2022/03/21 20:17:29;;;;;;;10.65;9.60;;;;;;;;;;12546078;28;20298;-82
2022/03/21 20:23:30;;;;;;;10.23;9.33;;;;;;;;;;12545869;28;20112;-81
2022/03/21 20:29:32;;;;;;;10.75;9.60;;;;;;;;;;12546352;28;20041;-83
2022/03/21 20:35:35;;;;;;;11.55;10.45;;;;;;;;;;12551104;28;20033;-79
2022/03/21 20:41:37;;;;;;;12.40;11.10;;;;;;;;;;12546396;28;20358;-82
2022/03/21 20:47:39;;;;;;;12.90;11.57;;;;;;;;;;12544984;28;20041;-80
2022/03/21 20:53:41;;;;;;;15.80;14.10;;;;;;;;;;12545532;28;20021;-81
2022/03/21 20:59:43;;;;;;;14.73;13.27;;;;;;;;;;12544282;28;20044;-80
2022/03/21 21:05:45;;;;;;;15.77;13.90;;;;;;;;;;12543202;28;20028;-81
2022/03/21 21:11:47;;;;;;;16.95;15.35;;;;;;;;;;12555524;28;20060;-82
2022/03/21 21:17:48;;;;;;;17.00;15.30;;;;;;;;;;12544077;28;20037;-81
2022/03/21 21:23:50;;;;;;;17.13;15.43;;;;;;;;;;12543201;28;20390;-81
2022/03/21 21:29:52;;;;;;;17.98;16.17;;;;;;;;;;12525129;28;20048;-80
2022/03/21 21:35:54;;;;;;;15.00;13.50;;;;;;;;;;12542868;28;20033;-78
2022/03/21 21:41:55;;;;;;;17.90;15.00;;;;;;;;;;12541950;28;20041;-78
2022/03/21 21:47:57;;;;;;;16.95;15.25;;;;;;;;;;12542135;28;20449;-78
2022/03/21 21:54:01;;;;;;;15.45;13.90;;;;;;;;;;12559166;28;20037;-79
2022/03/21 22:00:03;;;;;;;24.23;21.85;;;;;;;;;;12540104;28;20513;-79
2022/03/21 22:06:07;;;;;;;22.17;20.08;;;;;;;;;;12541977;28;20117;-79
2022/03/21 22:12:09;;;;;;;;;;;;;;;;;;12542349;28;20061;-79
2022/03/21 22:18:13;;;;;;;22.03;19.73;;;;;;;;;;12555284;28;20408;-79
2022/03/21 22:24:16;;;;;;;16.20;14.55;;;;;;;;;;12539774;28;20040;-79
2022/03/21 22:30:18;;;;;;;15.80;14.20;;;;;;;;;;12563595;28;20045;-79
2022/03/21 22:36:20;;;;;;;21.83;19.70;;;;;;;;;;12545587;28;20039;-78
2022/03/21 22:48:44;;;;;;;19.63;17.70;;;;;;;;;;12541145;28;20045;-78
2022/03/21 22:54:47;;;;;;;22.48;20.20;;;;;;;;;;12540168;28;20048;-78
2022/03/21 23:00:50;;;;;;;19.73;17.83;;;;;;;;;;12538782;28;20397;-77
2022/03/21 23:06:52;;;;;;;19.52;17.65;;;;;;;;;;12539832;28;20512;-77
2022/03/21 23:12:54;;;;;;;19.40;17.42;;;;;;;;;;12551937;28;20053;-77
2022/03/21 23:18:56;;;;;;;22.45;20.33;;;;;;;;;;12554575;28;20337;-78
2022/03/21 23:24:58;;;;;;;24.77;22.48;;;;;;;;;;12549237;28;20036;-78
2022/03/21 23:31:01;;;;;;;26.43;23.80;;;;;;;;;;12553212;28;20517;-78
2022/03/21 23:37:02;;;;;;;29.67;26.77;;;;;;;;;;12548213;28;20044;-78
2022/03/21 23:43:04;;;;;;;26.20;23.63;;;;;;;;;;12548566;28;20037;-78
2022/03/21 23:49:06;;;;;;;24.13;21.63;;;;;;;;;;12547820;28;20048;-78
2022/03/21 23:55:08;;;;;;;24.42;22.00;;;;;;;;;;12548548;28;20037;-78
